sensor_id;sensor_type;location;lat;lon;timestamp;P1;durP1;ratioP1;P2;durP2;ratioP2
51957;SDS011;41120;51.820;20.804;2023-02-28T00:07:45;28.48;;;13.68;;
51957;SDS011;41120;51.820;20.804;2023-02-28T00:10:18;21.85;;;11.55;;
51957;SDS011;41120;51.820;20.804;2023-02-28T00:13:01;21.63;;;10.13;;
51957;SDS011;41120;51.820;20.804;2023-02-28T00:15:28;21.77;;;11.35;;
51957;SDS011;41120;51.820;20.804;2023-02-28T00:20:45;21.30;;;9.90;;
51957;SDS011;41120;51.820;20.804;2023-02-28T00:26:21;17.40;;;10.27;;
51957;SDS011;41120;51.820;20.804;2023-02-28T00:31:46;19.15;;;10.00;;
51957;SDS011;41120;51.820;20.804;2023-02-28T00:40:02;21.05;;;10.35;;
51957;SDS011;41120;51.820;20.804;2023-02-28T00:42:46;22.67;;;11.25;;
51957;SDS011;41120;51.820;20.804;2023-02-28T00:45:23;21.42;;;11.02;;
51957;SDS011;41120;51.820;20.804;2023-02-28T00:48:00;18.40;;;10.65;;
51957;SDS011;41120;51.820;20.804;2023-02-28T00:50:26;24.35;;;11.52;;
51957;SDS011;41120;51.820;20.804;2023-02-28T00:52:58;21.50;;;11.18;;
51957;SDS011;41120;51.820;20.804;2023-02-28T01:01:54;24.17;;;11.38;;
51957;SDS011;41120;51.820;20.804;2023-02-28T01:16:43;23.38;;;10.80;;
51957;SDS011;41120;51.820;20.804;2023-02-28T01:19:23;24.60;;;11.00;;
51957;SDS011;41120;51.820;20.804;2023-02-28T01:21:50;27.42;;;11.20;;
51957;SDS011;41120;51.820;20.804;2023-02-28T01:24:16;23.83;;;11.43;;
51957;SDS011;41120;51.820;20.804;2023-02-28T01:38:48;23.80;;;10.43;;
51957;SDS011;41120;51.820;20.804;2023-02-28T01:47:21;21.48;;;10.23;;
51957;SDS011;41120;51.820;20.804;2023-02-28T01:50:07;19.27;;;10.40;;
51957;SDS011;41120;51.820;20.804;2023-02-28T01:55:52;27.02;;;11.65;;
51957;SDS011;41120;51.820;20.804;2023-02-28T01:58:21;26.20;;;12.27;;
51957;SDS011;41120;51.820;20.804;2023-02-28T02:07:16;24.40;;;10.90;;
51957;SDS011;41120;51.820;20.804;2023-02-28T02:46:50;24.05;;;11.73;;
51957;SDS011;41120;51.820;20.804;2023-02-28T02:58:01;18.63;;;10.82;;
51957;SDS011;41120;51.820;20.804;2023-02-28T03:03:16;23.38;;;11.30;;
51957;SDS011;41120;51.820;20.804;2023-02-28T03:08:29;23.00;;;11.45;;
51957;SDS011;41120;51.820;20.804;2023-02-28T03:11:03;24.08;;;11.90;;
51957;SDS011;41120;51.820;20.804;2023-02-28T03:16:43;25.35;;;11.88;;
51957;SDS011;41120;51.820;20.804;2023-02-28T03:22:26;21.90;;;10.65;;
51957;SDS011;41120;51.820;20.804;2023-02-28T03:25:13;20.60;;;11.27;;
51957;SDS011;41120;51.820;20.804;2023-02-28T03:31:18;20.88;;;11.15;;
51957;SDS011;41120;51.820;20.804;2023-02-28T03:39:59;21.60;;;11.27;;
51957;SDS011;41120;51.820;20.804;2023-02-28T03:42:28;21.63;;;11.20;;
51957;SDS011;41120;51.820;20.804;2023-02-28T03:50:41;28.70;;;13.25;;
51957;SDS011;41120;51.820;20.804;2023-02-28T04:01:39;23.33;;;11.65;;
51957;SDS011;41120;51.820;20.804;2023-02-28T04:04:14;23.55;;;12.35;;
51957;SDS011;41120;51.820;20.804;2023-02-28T04:06:49;20.60;;;11.70;;
51957;SDS011;41120;51.820;20.804;2023-02-28T04:09:15;23.20;;;12.40;;
51957;SDS011;41120;51.820;20.804;2023-02-28T04:11:51;21.93;;;11.60;;
51957;SDS011;41120;51.820;20.804;2023-02-28T04:19:39;23.70;;;11.98;;
51957;SDS011;41120;51.820;20.804;2023-02-28T04:22:13;25.05;;;13.15;;
51957;SDS011;41120;51.820;20.804;2023-02-28T04:24:52;23.35;;;12.60;;
51957;SDS011;41120;51.820;20.804;2023-02-28T04:27:23;29.55;;;13.45;;
51957;SDS011;41120;51.820;20.804;2023-02-28T04:29:56;23.92;;;12.45;;
51957;SDS011;41120;51.820;20.804;2023-02-28T04:32:24;24.98;;;13.52;;
51957;SDS011;41120;51.820;20.804;2023-02-28T04:37:31;30.05;;;14.45;;
51957;SDS011;41120;51.820;20.804;2023-02-28T04:51:52;31.33;;;13.60;;
51957;SDS011;41120;51.820;20.804;2023-02-28T04:57:24;30.17;;;14.00;;
51957;SDS011;41120;51.820;20.804;2023-02-28T05:02:55;28.33;;;12.80;;
51957;SDS011;41120;51.820;20.804;2023-02-28T05:07:52;24.40;;;12.57;;
51957;SDS011;41120;51.820;20.804;2023-02-28T05:10:19;28.17;;;14.55;;
51957;SDS011;41120;51.820;20.804;2023-02-28T05:18:52;33.75;;;16.65;;
51957;SDS011;41120;51.820;20.804;2023-02-28T05:29:26;32.78;;;17.20;;
51957;SDS011;41120;51.820;20.804;2023-02-28T05:31:52;41.38;;;19.02;;
51957;SDS011;41120;51.820;20.804;2023-02-28T05:34:26;46.88;;;21.10;;
51957;SDS011;41120;51.820;20.804;2023-02-28T05:39:26;31.17;;;15.95;;
51957;SDS011;41120;51.820;20.804;2023-02-28T05:41:53;27.63;;;15.15;;
51957;SDS011;41120;51.820;20.804;2023-02-28T05:44:19;34.00;;;17.55;;
51957;SDS011;41120;51.820;20.804;2023-02-28T05:55:25;38.22;;;17.48;;
51957;SDS011;41120;51.820;20.804;2023-02-28T06:01:01;37.20;;;19.00;;
51957;SDS011;41120;51.820;20.804;2023-02-28T06:03:47;43.95;;;20.77;;
51957;SDS011;41120;51.820;20.804;2023-02-28T06:06:15;42.92;;;20.38;;
51957;SDS011;41120;51.820;20.804;2023-02-28T06:08:55;45.53;;;20.17;;
51957;SDS011;41120;51.820;20.804;2023-02-28T06:11:29;46.17;;;22.60;;
51957;SDS011;41120;51.820;20.804;2023-02-28T06:14:14;43.88;;;21.77;;
51957;SDS011;41120;51.820;20.804;2023-02-28T06:19:18;44.65;;;20.67;;
51957;SDS011;41120;51.820;20.804;2023-02-28T06:22:03;42.72;;;21.17;;
51957;SDS011;41120;51.820;20.804;2023-02-28T06:24:35;44.10;;;21.50;;
51957;SDS011;41120;51.820;20.804;2023-02-28T06:29:59;43.05;;;22.52;;
51957;SDS011;41120;51.820;20.804;2023-02-28T06:35:02;34.85;;;18.17;;
51957;SDS011;41120;51.820;20.804;2023-02-28T06:37:46;29.63;;;15.98;;
51957;SDS011;41120;51.820;20.804;2023-02-28T06:40:27;30.08;;;15.52;;
51957;SDS011;41120;51.820;20.804;2023-02-28T06:42:58;29.40;;;15.95;;
51957;SDS011;41120;51.820;20.804;2023-02-28T06:45:25;28.52;;;14.32;;
51957;SDS011;41120;51.820;20.804;2023-02-28T06:47:57;28.10;;;14.30;;
51957;SDS011;41120;51.820;20.804;2023-02-28T06:50:29;25.48;;;13.32;;
51957;SDS011;41120;51.820;20.804;2023-02-28T06:53:18;27.33;;;13.65;;
51957;SDS011;41120;51.820;20.804;2023-02-28T06:55:45;26.98;;;14.00;;
51957;SDS011;41120;51.820;20.804;2023-02-28T07:00:56;24.63;;;13.70;;
51957;SDS011;41120;51.820;20.804;2023-02-28T07:03:22;24.73;;;12.02;;
51957;SDS011;41120;51.820;20.804;2023-02-28T07:12:38;20.85;;;11.73;;
51957;SDS011;41120;51.820;20.804;2023-02-28T07:15:17;24.35;;;12.77;;
51957;SDS011;41120;51.820;20.804;2023-02-28T07:18:08;20.63;;;12.77;;
51957;SDS011;41120;51.820;20.804;2023-02-28T07:20:40;18.92;;;11.13;;
51957;SDS011;41120;51.820;20.804;2023-02-28T07:26:42;23.48;;;11.48;;
51957;SDS011;41120;51.820;20.804;2023-02-28T07:29:14;23.48;;;12.00;;
51957;SDS011;41120;51.820;20.804;2023-02-28T07:57:46;13.00;;;7.32;;
51957;SDS011;41120;51.820;20.804;2023-02-28T08:00:27;13.07;;;7.80;;
51957;SDS011;41120;51.820;20.804;2023-02-28T08:02:54;11.75;;;7.43;;
51957;SDS011;41120;51.820;20.804;2023-02-28T08:05:27;15.33;;;8.23;;
51957;SDS011;41120;51.820;20.804;2023-02-28T08:10:24;12.73;;;7.32;;
51957;SDS011;41120;51.820;20.804;2023-02-28T08:12:55;16.48;;;7.40;;
51957;SDS011;41120;51.820;20.804;2023-02-28T08:15:37;16.63;;;7.63;;
51957;SDS011;41120;51.820;20.804;2023-02-28T08:18:20;8.95;;;6.28;;
51957;SDS011;41120;51.820;20.804;2023-02-28T08:20:51;12.35;;;6.78;;
51957;SDS011;41120;51.820;20.804;2023-02-28T08:23:23;14.40;;;7.60;;
51957;SDS011;41120;51.820;20.804;2023-02-28T08:25:56;9.90;;;6.40;;
51957;SDS011;41120;51.820;20.804;2023-02-28T08:28:29;10.95;;;6.65;;
51957;SDS011;41120;51.820;20.804;2023-02-28T08:30:56;8.93;;;6.18;;
51957;SDS011;41120;51.820;20.804;2023-02-28T08:33:23;11.25;;;6.30;;
51957;SDS011;41120;51.820;20.804;2023-02-28T08:35:52;11.68;;;6.45;;
51957;SDS011;41120;51.820;20.804;2023-02-28T08:38:18;9.70;;;6.20;;
51957;SDS011;41120;51.820;20.804;2023-02-28T08:40:46;10.95;;;6.85;;
51957;SDS011;41120;51.820;20.804;2023-02-28T08:43:29;10.52;;;6.55;;
51957;SDS011;41120;51.820;20.804;2023-02-28T08:45:57;11.98;;;6.32;;
51957;SDS011;41120;51.820;20.804;2023-02-28T08:48:30;11.70;;;7.05;;
51957;SDS011;41120;51.820;20.804;2023-02-28T08:51:03;12.23;;;7.22;;
51957;SDS011;41120;51.820;20.804;2023-02-28T08:53:30;11.05;;;6.47;;
51957;SDS011;41120;51.820;20.804;2023-02-28T08:55:58;11.63;;;7.00;;
51957;SDS011;41120;51.820;20.804;2023-02-28T08:58:27;10.98;;;6.25;;
51957;SDS011;41120;51.820;20.804;2023-02-28T09:01:06;11.02;;;6.63;;
51957;SDS011;41120;51.820;20.804;2023-02-28T09:03:40;10.43;;;6.85;;
51957;SDS011;41120;51.820;20.804;2023-02-28T09:14:17;9.68;;;6.68;;
51957;SDS011;41120;51.820;20.804;2023-02-28T09:19:29;10.38;;;7.20;;
51957;SDS011;41120;51.820;20.804;2023-02-28T09:24:29;14.10;;;7.70;;
51957;SDS011;41120;51.820;20.804;2023-02-28T09:27:00;11.55;;;7.22;;
51957;SDS011;41120;51.820;20.804;2023-02-28T09:34:26;11.15;;;7.55;;
51957;SDS011;41120;51.820;20.804;2023-02-28T09:36:52;12.60;;;7.97;;
51957;SDS011;41120;51.820;20.804;2023-02-28T09:39:22;10.50;;;6.78;;
51957;SDS011;41120;51.820;20.804;2023-02-28T09:42:06;12.90;;;7.22;;
51957;SDS011;41120;51.820;20.804;2023-02-28T09:44:44;12.75;;;7.53;;
51957;SDS011;41120;51.820;20.804;2023-02-28T09:55:19;11.27;;;7.63;;
51957;SDS011;41120;51.820;20.804;2023-02-28T09:58:00;17.38;;;7.93;;
51957;SDS011;41120;51.820;20.804;2023-02-28T10:12:16;11.50;;;6.72;;
51957;SDS011;41120;51.820;20.804;2023-02-28T10:17:21;10.02;;;6.53;;
51957;SDS011;41120;51.820;20.804;2023-02-28T10:23:33;11.40;;;7.10;;
51957;SDS011;41120;51.820;20.804;2023-02-28T10:25:33;10.43;;;6.55;;
51957;SDS011;41120;51.820;20.804;2023-02-28T10:31:06;11.73;;;7.15;;
51957;SDS011;41120;51.820;20.804;2023-02-28T10:33:36;14.32;;;7.80;;
51957;SDS011;41120;51.820;20.804;2023-02-28T10:36:04;12.32;;;7.40;;
51957;SDS011;41120;51.820;20.804;2023-02-28T10:38:34;13.23;;;8.40;;
51957;SDS011;41120;51.820;20.804;2023-02-28T10:41:08;13.38;;;7.68;;
51957;SDS011;41120;51.820;20.804;2023-02-28T10:43:38;13.65;;;8.10;;
51957;SDS011;41120;51.820;20.804;2023-02-28T10:51:33;11.85;;;7.05;;
51957;SDS011;41120;51.820;20.804;2023-02-28T10:54:01;11.43;;;7.43;;
51957;SDS011;41120;51.820;20.804;2023-02-28T10:56:37;10.27;;;7.40;;
51957;SDS011;41120;51.820;20.804;2023-02-28T11:01:37;13.07;;;7.55;;
51957;SDS011;41120;51.820;20.804;2023-02-28T11:04:19;12.63;;;7.75;;
51957;SDS011;41120;51.820;20.804;2023-02-28T11:06:47;12.57;;;7.50;;
51957;SDS011;41120;51.820;20.804;2023-02-28T11:14:58;13.23;;;8.25;;
51957;SDS011;41120;51.820;20.804;2023-02-28T11:17:33;10.77;;;7.90;;
51957;SDS011;41120;51.820;20.804;2023-02-28T11:23:00;11.40;;;7.75;;
51957;SDS011;41120;51.820;20.804;2023-02-28T11:25:30;13.10;;;7.45;;
51957;SDS011;41120;51.820;20.804;2023-02-28T11:28:05;12.60;;;7.60;;
51957;SDS011;41120;51.820;20.804;2023-02-28T11:30:41;13.63;;;7.93;;
51957;SDS011;41120;51.820;20.804;2023-02-28T11:33:31;14.75;;;8.95;;
51957;SDS011;41120;51.820;20.804;2023-02-28T11:36:03;13.63;;;8.60;;
51957;SDS011;41120;51.820;20.804;2023-02-28T11:38:33;12.65;;;8.38;;
51957;SDS011;41120;51.820;20.804;2023-02-28T11:52:34;14.68;;;8.60;;
51957;SDS011;41120;51.820;20.804;2023-02-28T12:23:52;14.77;;;8.85;;
51957;SDS011;41120;51.820;20.804;2023-02-28T12:47:23;11.88;;;7.22;;
51957;SDS011;41120;51.820;20.804;2023-02-28T12:49:52;15.05;;;9.00;;
51957;SDS011;41120;51.820;20.804;2023-02-28T13:03:51;13.63;;;8.95;;
51957;SDS011;41120;51.820;20.804;2023-02-28T13:09:12;14.43;;;9.15;;
51957;SDS011;41120;51.820;20.804;2023-02-28T13:11:53;11.77;;;7.90;;
51957;SDS011;41120;51.820;20.804;2023-02-28T13:14:36;14.52;;;8.85;;
51957;SDS011;41120;51.820;20.804;2023-02-28T13:17:23;16.15;;;9.50;;
51957;SDS011;41120;51.820;20.804;2023-02-28T13:20:13;15.00;;;8.23;;
51957;SDS011;41120;51.820;20.804;2023-02-28T13:28:00;13.50;;;8.55;;
51957;SDS011;41120;51.820;20.804;2023-02-28T13:39:02;12.73;;;8.57;;
51957;SDS011;41120;51.820;20.804;2023-02-28T13:58:41;13.63;;;9.00;;
51957;SDS011;41120;51.820;20.804;2023-02-28T14:11:49;16.05;;;8.73;;
51957;SDS011;41120;51.820;20.804;2023-02-28T14:17:05;16.67;;;9.55;;
51957;SDS011;41120;51.820;20.804;2023-02-28T14:19:43;16.17;;;9.55;;
51957;SDS011;41120;51.820;20.804;2023-02-28T14:22:32;14.02;;;8.52;;
51957;SDS011;41120;51.820;20.804;2023-02-28T14:38:44;16.08;;;8.52;;
51957;SDS011;41120;51.820;20.804;2023-02-28T14:41:24;13.65;;;8.45;;
51957;SDS011;41120;51.820;20.804;2023-02-28T14:49:12;13.15;;;7.95;;
51957;SDS011;41120;51.820;20.804;2023-02-28T14:51:39;13.02;;;7.95;;
51957;SDS011;41120;51.820;20.804;2023-02-28T14:54:07;15.45;;;8.05;;
51957;SDS011;41120;51.820;20.804;2023-02-28T14:56:38;11.57;;;8.00;;
51957;SDS011;41120;51.820;20.804;2023-02-28T15:12:47;15.43;;;9.13;;
51957;SDS011;41120;51.820;20.804;2023-02-28T15:17:58;16.50;;;10.18;;
51957;SDS011;41120;51.820;20.804;2023-02-28T15:20:29;17.05;;;10.40;;
51957;SDS011;41120;51.820;20.804;2023-02-28T15:22:55;22.17;;;10.98;;
51957;SDS011;41120;51.820;20.804;2023-02-28T15:25:36;19.95;;;9.73;;
51957;SDS011;41120;51.820;20.804;2023-02-28T15:28:14;36.55;;;13.93;;
51957;SDS011;41120;51.820;20.804;2023-02-28T15:31:01;17.25;;;9.00;;
51957;SDS011;41120;51.820;20.804;2023-02-28T15:33:38;15.88;;;9.20;;
51957;SDS011;41120;51.820;20.804;2023-02-28T15:36:18;20.17;;;10.27;;
51957;SDS011;41120;51.820;20.804;2023-02-28T15:38:56;16.42;;;10.30;;
51957;SDS011;41120;51.820;20.804;2023-02-28T15:52:34;18.50;;;11.45;;
51957;SDS011;41120;51.820;20.804;2023-02-28T15:55:19;47.50;;;25.63;;
51957;SDS011;41120;51.820;20.804;2023-02-28T16:00:33;21.55;;;13.50;;
51957;SDS011;41120;51.820;20.804;2023-02-28T16:03:01;20.35;;;12.73;;
51957;SDS011;41120;51.820;20.804;2023-02-28T16:08:51;22.05;;;12.13;;
51957;SDS011;41120;51.820;20.804;2023-02-28T16:11:18;21.92;;;13.32;;
51957;SDS011;41120;51.820;20.804;2023-02-28T16:13:53;24.45;;;12.52;;
51957;SDS011;41120;51.820;20.804;2023-02-28T16:16:24;25.30;;;13.32;;
51957;SDS011;41120;51.820;20.804;2023-02-28T16:21:47;20.85;;;12.77;;
51957;SDS011;41120;51.820;20.804;2023-02-28T16:24:16;21.48;;;13.02;;
51957;SDS011;41120;51.820;20.804;2023-02-28T16:29:36;22.83;;;13.18;;
51957;SDS011;41120;51.820;20.804;2023-02-28T16:32:05;21.27;;;13.02;;
51957;SDS011;41120;51.820;20.804;2023-02-28T16:40:41;28.75;;;15.05;;
51957;SDS011;41120;51.820;20.804;2023-02-28T16:43:13;28.77;;;15.63;;
51957;SDS011;41120;51.820;20.804;2023-02-28T16:45:41;33.85;;;16.80;;
51957;SDS011;41120;51.820;20.804;2023-02-28T16:48:08;56.45;;;36.15;;
51957;SDS011;41120;51.820;20.804;2023-02-28T16:50:37;61.42;;;24.58;;
51957;SDS011;41120;51.820;20.804;2023-02-28T16:53:02;169.63;;;44.30;;
51957;SDS011;41120;51.820;20.804;2023-02-28T16:55:31;87.70;;;28.30;;
51957;SDS011;41120;51.820;20.804;2023-02-28T16:57:59;44.53;;;17.88;;
51957;SDS011;41120;51.820;20.804;2023-02-28T17:02:57;56.45;;;24.00;;
51957;SDS011;41120;51.820;20.804;2023-02-28T17:05:26;104.40;;;41.78;;
51957;SDS011;41120;51.820;20.804;2023-02-28T17:07:55;55.75;;;24.95;;
51957;SDS011;41120;51.820;20.804;2023-02-28T17:10:23;47.40;;;19.65;;
51957;SDS011;41120;51.820;20.804;2023-02-28T17:12:54;45.75;;;20.45;;
51957;SDS011;41120;51.820;20.804;2023-02-28T17:15:21;27.80;;;15.60;;
51957;SDS011;41120;51.820;20.804;2023-02-28T17:17:51;27.33;;;14.90;;
51957;SDS011;41120;51.820;20.804;2023-02-28T17:22:50;25.95;;;13.25;;
51957;SDS011;41120;51.820;20.804;2023-02-28T17:25:18;27.08;;;13.65;;
51957;SDS011;41120;51.820;20.804;2023-02-28T17:27:47;47.67;;;21.05;;
51957;SDS011;41120;51.820;20.804;2023-02-28T17:30:16;44.28;;;19.98;;
51957;SDS011;41120;51.820;20.804;2023-02-28T17:32:50;92.68;;;37.22;;
51957;SDS011;41120;51.820;20.804;2023-02-28T17:35:16;52.50;;;26.02;;
51957;SDS011;41120;51.820;20.804;2023-02-28T17:40:18;86.13;;;38.72;;
51957;SDS011;41120;51.820;20.804;2023-02-28T17:42:49;46.42;;;28.05;;
51957;SDS011;41120;51.820;20.804;2023-02-28T17:47:49;38.67;;;21.73;;
51957;SDS011;41120;51.820;20.804;2023-02-28T17:53:06;31.40;;;19.42;;
51957;SDS011;41120;51.820;20.804;2023-02-28T17:58:03;23.13;;;13.25;;
51957;SDS011;41120;51.820;20.804;2023-02-28T18:00:36;34.67;;;18.67;;
51957;SDS011;41120;51.820;20.804;2023-02-28T18:03:05;51.40;;;17.63;;
51957;SDS011;41120;51.820;20.804;2023-02-28T18:05:32;46.97;;;19.83;;
51957;SDS011;41120;51.820;20.804;2023-02-28T18:07:59;785.28;;;173.27;;
51957;SDS011;41120;51.820;20.804;2023-02-28T18:10:30;382.38;;;93.13;;
51957;SDS011;41120;51.820;20.804;2023-02-28T18:12:58;124.70;;;35.90;;
51957;SDS011;41120;51.820;20.804;2023-02-28T18:15:27;111.45;;;28.88;;
51957;SDS011;41120;51.820;20.804;2023-02-28T18:17:58;143.00;;;34.83;;
51957;SDS011;41120;51.820;20.804;2023-02-28T18:20:44;66.78;;;20.52;;
51957;SDS011;41120;51.820;20.804;2023-02-28T18:23:11;62.33;;;20.98;;
51957;SDS011;41120;51.820;20.804;2023-02-28T18:25:47;419.52;;;99.50;;
51957;SDS011;41120;51.820;20.804;2023-02-28T18:28:14;102.43;;;29.10;;
51957;SDS011;41120;51.820;20.804;2023-02-28T18:30:41;48.53;;;19.25;;
51957;SDS011;41120;51.820;20.804;2023-02-28T18:33:08;38.72;;;15.95;;
51957;SDS011;41120;51.820;20.804;2023-02-28T18:35:34;37.40;;;16.30;;
51957;SDS011;41120;51.820;20.804;2023-02-28T18:38:03;34.78;;;19.23;;
51957;SDS011;41120;51.820;20.804;2023-02-28T18:40:33;154.25;;;42.47;;
51957;SDS011;41120;51.820;20.804;2023-02-28T18:43:01;62.70;;;23.23;;
51957;SDS011;41120;51.820;20.804;2023-02-28T18:45:28;52.45;;;19.88;;
51957;SDS011;41120;51.820;20.804;2023-02-28T18:47:55;41.25;;;18.20;;
51957;SDS011;41120;51.820;20.804;2023-02-28T18:50:23;36.65;;;17.35;;
51957;SDS011;41120;51.820;20.804;2023-02-28T18:52:49;36.13;;;18.35;;
51957;SDS011;41120;51.820;20.804;2023-02-28T18:55:16;31.92;;;17.15;;
51957;SDS011;41120;51.820;20.804;2023-02-28T18:57:47;54.15;;;22.60;;
51957;SDS011;41120;51.820;20.804;2023-02-28T19:00:15;38.55;;;17.77;;
51957;SDS011;41120;51.820;20.804;2023-02-28T19:02:45;40.33;;;20.52;;
51957;SDS011;41120;51.820;20.804;2023-02-28T19:05:18;45.10;;;23.48;;
51957;SDS011;41120;51.820;20.804;2023-02-28T19:07:45;48.67;;;23.90;;
51957;SDS011;41120;51.820;20.804;2023-02-28T19:10:17;48.65;;;23.30;;
51957;SDS011;41120;51.820;20.804;2023-02-28T19:12:51;45.22;;;25.90;;
51957;SDS011;41120;51.820;20.804;2023-02-28T19:15:21;65.78;;;33.53;;
51957;SDS011;41120;51.820;20.804;2023-02-28T19:17:49;75.25;;;38.08;;
51957;SDS011;41120;51.820;20.804;2023-02-28T19:20:19;86.22;;;46.10;;
51957;SDS011;41120;51.820;20.804;2023-02-28T19:22:48;82.57;;;46.28;;
51957;SDS011;41120;51.820;20.804;2023-02-28T19:25:16;83.35;;;42.90;;
51957;SDS011;41120;51.820;20.804;2023-02-28T19:27:47;94.88;;;44.22;;
51957;SDS011;41120;51.820;20.804;2023-02-28T19:30:22;82.80;;;42.72;;
51957;SDS011;41120;51.820;20.804;2023-02-28T19:32:48;77.68;;;38.90;;
51957;SDS011;41120;51.820;20.804;2023-02-28T19:35:20;72.28;;;35.15;;
51957;SDS011;41120;51.820;20.804;2023-02-28T19:37:47;83.05;;;39.08;;
51957;SDS011;41120;51.820;20.804;2023-02-28T19:40:14;96.78;;;42.03;;
51957;SDS011;41120;51.820;20.804;2023-02-28T19:48:13;100.28;;;46.22;;
51957;SDS011;41120;51.820;20.804;2023-02-28T19:50:39;100.47;;;43.20;;
51957;SDS011;41120;51.820;20.804;2023-02-28T19:53:06;97.47;;;41.70;;
51957;SDS011;41120;51.820;20.804;2023-02-28T19:55:34;94.18;;;40.83;;
51957;SDS011;41120;51.820;20.804;2023-02-28T19:58:03;84.30;;;38.05;;
51957;SDS011;41120;51.820;20.804;2023-02-28T20:00:30;82.38;;;38.25;;
51957;SDS011;41120;51.820;20.804;2023-02-28T20:02:56;79.20;;;36.47;;
51957;SDS011;41120;51.820;20.804;2023-02-28T20:05:24;81.07;;;36.50;;
51957;SDS011;41120;51.820;20.804;2023-02-28T20:10:39;66.97;;;32.00;;
51957;SDS011;41120;51.820;20.804;2023-02-28T20:13:05;65.23;;;31.13;;
51957;SDS011;41120;51.820;20.804;2023-02-28T20:15:41;67.05;;;31.38;;
51957;SDS011;41120;51.820;20.804;2023-02-28T20:18:07;61.50;;;31.80;;
51957;SDS011;41120;51.820;20.804;2023-02-28T20:20:50;65.85;;;30.83;;
51957;SDS011;41120;51.820;20.804;2023-02-28T20:26:20;87.82;;;35.28;;
51957;SDS011;41120;51.820;20.804;2023-02-28T20:28:53;163.20;;;57.25;;
51957;SDS011;41120;51.820;20.804;2023-02-28T20:31:22;276.27;;;96.25;;
51957;SDS011;41120;51.820;20.804;2023-02-28T20:33:50;151.18;;;59.15;;
51957;SDS011;41120;51.820;20.804;2023-02-28T20:36:19;167.50;;;64.63;;
51957;SDS011;41120;51.820;20.804;2023-02-28T20:38:54;112.45;;;45.28;;
51957;SDS011;41120;51.820;20.804;2023-02-28T20:41:32;165.70;;;60.30;;
51957;SDS011;41120;51.820;20.804;2023-02-28T20:43:58;90.32;;;40.38;;
51957;SDS011;41120;51.820;20.804;2023-02-28T20:46:34;83.75;;;40.45;;
51957;SDS011;41120;51.820;20.804;2023-02-28T20:49:02;64.90;;;28.70;;
51957;SDS011;41120;51.820;20.804;2023-02-28T20:51:31;55.22;;;26.45;;
51957;SDS011;41120;51.820;20.804;2023-02-28T20:53:58;54.70;;;25.80;;
51957;SDS011;41120;51.820;20.804;2023-02-28T20:56:29;118.47;;;44.35;;
51957;SDS011;41120;51.820;20.804;2023-02-28T21:01:29;266.83;;;98.38;;
51957;SDS011;41120;51.820;20.804;2023-02-28T21:03:58;148.13;;;56.08;;
51957;SDS011;41120;51.820;20.804;2023-02-28T21:06:27;120.68;;;49.45;;
51957;SDS011;41120;51.820;20.804;2023-02-28T21:08:55;66.32;;;30.42;;
51957;SDS011;41120;51.820;20.804;2023-02-28T21:14:15;76.18;;;34.42;;
51957;SDS011;41120;51.820;20.804;2023-02-28T21:16:52;59.55;;;26.75;;
51957;SDS011;41120;51.820;20.804;2023-02-28T21:19:27;50.95;;;22.75;;
51957;SDS011;41120;51.820;20.804;2023-02-28T21:24:24;76.22;;;32.42;;
51957;SDS011;41120;51.820;20.804;2023-02-28T21:26:52;101.32;;;42.05;;
51957;SDS011;41120;51.820;20.804;2023-02-28T21:29:28;86.18;;;38.80;;
51957;SDS011;41120;51.820;20.804;2023-02-28T21:31:58;95.32;;;37.40;;
51957;SDS011;41120;51.820;20.804;2023-02-28T21:36:58;80.50;;;36.40;;
51957;SDS011;41120;51.820;20.804;2023-02-28T21:39:26;78.93;;;36.17;;
51957;SDS011;41120;51.820;20.804;2023-02-28T21:44:28;52.28;;;23.42;;
51957;SDS011;41120;51.820;20.804;2023-02-28T21:46:54;69.20;;;28.20;;
51957;SDS011;41120;51.820;20.804;2023-02-28T21:49:24;151.65;;;57.08;;
51957;SDS011;41120;51.820;20.804;2023-02-28T21:51:51;97.45;;;39.70;;
51957;SDS011;41120;51.820;20.804;2023-02-28T21:54:22;84.78;;;34.70;;
51957;SDS011;41120;51.820;20.804;2023-02-28T21:56:48;126.90;;;43.97;;
51957;SDS011;41120;51.820;20.804;2023-02-28T22:01:49;143.88;;;48.13;;
51957;SDS011;41120;51.820;20.804;2023-02-28T22:04:20;123.30;;;44.00;;
51957;SDS011;41120;51.820;20.804;2023-02-28T22:06:50;98.28;;;37.28;;
51957;SDS011;41120;51.820;20.804;2023-02-28T22:09:24;72.60;;;27.48;;
51957;SDS011;41120;51.820;20.804;2023-02-28T22:11:51;58.55;;;24.25;;
51957;SDS011;41120;51.820;20.804;2023-02-28T22:14:19;55.80;;;23.08;;
51957;SDS011;41120;51.820;20.804;2023-02-28T22:16:46;57.03;;;25.48;;
51957;SDS011;41120;51.820;20.804;2023-02-28T22:19:15;53.53;;;24.33;;
51957;SDS011;41120;51.820;20.804;2023-02-28T22:21:46;44.45;;;20.20;;
51957;SDS011;41120;51.820;20.804;2023-02-28T22:24:17;39.08;;;18.23;;
51957;SDS011;41120;51.820;20.804;2023-02-28T22:26:51;42.88;;;19.48;;
51957;SDS011;41120;51.820;20.804;2023-02-28T22:29:21;41.75;;;19.45;;
51957;SDS011;41120;51.820;20.804;2023-02-28T22:31:53;36.47;;;16.00;;
51957;SDS011;41120;51.820;20.804;2023-02-28T22:34:24;31.42;;;15.93;;
51957;SDS011;41120;51.820;20.804;2023-02-28T22:39:24;32.67;;;16.17;;
51957;SDS011;41120;51.820;20.804;2023-02-28T22:41:55;40.15;;;18.58;;
51957;SDS011;41120;51.820;20.804;2023-02-28T22:44:26;39.05;;;18.15;;
51957;SDS011;41120;51.820;20.804;2023-02-28T22:49:45;45.35;;;21.08;;
51957;SDS011;41120;51.820;20.804;2023-02-28T22:52:10;46.63;;;20.30;;
51957;SDS011;41120;51.820;20.804;2023-02-28T22:54:37;46.05;;;20.67;;
51957;SDS011;41120;51.820;20.804;2023-02-28T22:57:06;47.67;;;22.20;;
51957;SDS011;41120;51.820;20.804;2023-02-28T22:59:43;42.72;;;21.73;;
51957;SDS011;41120;51.820;20.804;2023-02-28T23:02:11;44.15;;;21.42;;
51957;SDS011;41120;51.820;20.804;2023-02-28T23:04:37;47.83;;;22.40;;
51957;SDS011;41120;51.820;20.804;2023-02-28T23:07:08;48.75;;;22.67;;
51957;SDS011;41120;51.820;20.804;2023-02-28T23:09:34;45.42;;;21.02;;
51957;SDS011;41120;51.820;20.804;2023-02-28T23:12:09;45.47;;;21.27;;
51957;SDS011;41120;51.820;20.804;2023-02-28T23:14:42;44.35;;;22.25;;
51957;SDS011;41120;51.820;20.804;2023-02-28T23:17:09;47.40;;;22.13;;
51957;SDS011;41120;51.820;20.804;2023-02-28T23:24:36;57.17;;;27.65;;
51957;SDS011;41120;51.820;20.804;2023-02-28T23:27:09;56.30;;;25.75;;
51957;SDS011;41120;51.820;20.804;2023-02-28T23:29:38;55.85;;;26.60;;
51957;SDS011;41120;51.820;20.804;2023-02-28T23:32:10;68.85;;;29.55;;
51957;SDS011;41120;51.820;20.804;2023-02-28T23:34:37;62.50;;;27.55;;
51957;SDS011;41120;51.820;20.804;2023-02-28T23:39:35;53.00;;;25.35;;
51957;SDS011;41120;51.820;20.804;2023-02-28T23:42:08;55.88;;;24.33;;
51957;SDS011;41120;51.820;20.804;2023-02-28T23:47:04;52.00;;;23.70;;
51957;SDS011;41120;51.820;20.804;2023-02-28T23:49:32;56.47;;;25.08;;
51957;SDS011;41120;51.820;20.804;2023-02-28T23:52:01;55.35;;;24.63;;
51957;SDS011;41120;51.820;20.804;2023-02-28T23:59:36;57.38;;;23.95;;
